Time;durP1;ratioP1;P1;durP2;ratioP2;P2;SDS_P1;SDS_P2;PMS_P1;PMS_P2;Temp;Humidity;BMP_temperature;BMP_pressure;BME280_temperature;BME280_humidity;BME280_pressure;Samples;Min_cycle;Max_cycle;Signal;HPM_P1;HPM_P2
2022/12/30 00:01:09;;;;;;;30.38;4.35;;;6.30;91.90;;;;;;4978028;28;20465;-85
2022/12/30 00:03:35;;;;;;;31.42;4.25;;;6.30;91.90;;;;;;4983372;28;20390;-87
2022/12/30 00:06:06;;;;;;;36.25;3.83;;;6.30;91.90;;;;;;4966724;28;20050;-87
2022/12/30 00:08:46;;;;;;;24.27;4.20;;;6.30;91.80;;;;;;4985456;28;20038;-87
2022/12/30 00:11:21;;;;;;;27.77;4.13;;;6.30;91.70;;;;;;4985567;28;20043;-87
2022/12/30 00:34:04;;;;;;;26.15;4.10;;;6.20;91.90;;;;;;4993224;28;20046;-87
2022/12/30 00:36:30;;;;;;;31.08;4.53;;;6.20;91.80;;;;;;4990015;28;20041;-89
2022/12/30 00:38:56;;;;;;;26.83;4.82;;;6.20;91.80;;;;;;4992651;28;20034;-86
2022/12/30 00:44:07;;;;;;;28.55;4.00;;;6.00;91.80;;;;;;4978551;28;20038;-87
2022/12/30 00:46:34;;;;;;;24.05;3.72;;;6.00;91.90;;;;;;4983993;28;20046;-86
2022/12/30 00:57:13;;;;;;;20.88;3.75;;;5.80;92.10;;;;;;5015884;28;20073;-88
2022/12/30 00:59:39;;;;;;;20.23;4.05;;;5.80;92.20;;;;;;4999354;28;20568;-88
2022/12/30 01:02:05;;;;;;;26.30;3.97;;;5.80;92.10;;;;;;4993639;28;20043;-86
2022/12/30 01:04:30;;;;;;;23.17;4.05;;;5.80;92.20;;;;;;4998771;28;20068;-87
2022/12/30 01:06:56;;;;;;;24.00;3.58;;;5.80;92.20;;;;;;5003797;28;20104;-87
2022/12/30 01:09:22;;;;;;;36.35;4.22;;;5.80;92.30;;;;;;4990644;28;20054;-87
2022/12/30 01:12:07;;;;;;;29.83;4.20;;;5.80;92.30;;;;;;5001910;28;20084;-87
2022/12/30 01:14:34;;;;;;;19.63;4.07;;;5.80;92.40;;;;;;4980149;28;20502;-86
2022/12/30 01:17:00;;;;;;;23.48;3.85;;;5.80;92.40;;;;;;4993756;28;20049;-86
2022/12/30 01:19:25;;;;;;;28.13;3.78;;;5.80;92.50;;;;;;5001492;28;20631;-85
2022/12/30 01:21:51;;;;;;;23.55;3.53;;;5.80;92.30;;;;;;4993690;28;20057;-87
2022/12/30 01:24:16;;;;;;;25.10;4.15;;;5.80;92.30;;;;;;4980749;28;20038;-86
2022/12/30 01:26:42;;;;;;;26.75;3.75;;;5.80;92.20;;;;;;4998317;28;20054;-86
2022/12/30 01:29:07;;;;;;;29.48;3.97;;;5.80;92.30;;;;;;4993615;28;20951;-86
2022/12/30 01:31:33;;;;;;;23.67;4.03;;;5.80;92.30;;;;;;4984149;28;20509;-87
2022/12/30 01:33:59;;;;;;;28.50;4.50;;;5.80;92.40;;;;;;4978742;28;20075;-85
2022/12/30 01:36:24;;;;;;;28.00;4.50;;;5.80;92.50;;;;;;4994497;28;20050;-85
2022/12/30 01:38:50;;;;;;;30.25;4.00;;;5.80;92.40;;;;;;4982136;28;20072;-85
2022/12/30 01:41:15;;;;;;;20.35;4.00;;;5.80;92.70;;;;;;4994700;28;20030;-85
2022/12/30 01:43:50;;;;;;;26.65;4.43;;;5.80;92.40;;;;;;4993245;28;20046;-86
2022/12/30 01:46:26;;;;;;;32.40;4.70;;;5.80;92.40;;;;;;4999941;28;20061;-85
2022/12/30 01:48:55;;;;;;;25.77;3.95;;;5.80;92.40;;;;;;4997837;28;20053;-86
2022/12/30 01:51:28;;;;;;;19.38;3.50;;;5.80;92.40;;;;;;4994698;28;20070;-85
2022/12/30 01:53:56;;;;;;;29.10;4.30;;;5.80;92.40;;;;;;4968898;28;20042;-85
2022/12/30 01:56:38;;;;;;;30.88;4.30;;;5.70;92.40;;;;;;4979638;28;20046;-87
2022/12/30 01:59:15;;;;;;;27.33;4.20;;;5.70;92.60;;;;;;4995989;28;20049;-87
2022/12/30 02:01:42;;;;;;;24.70;4.20;;;5.70;92.60;;;;;;4976877;28;20042;-85
2022/12/30 02:04:11;;;;;;;21.55;3.97;;;5.60;92.60;;;;;;4978391;28;20208;-86
2022/12/30 02:06:36;;;;;;;;;;;5.60;92.60;;;;;;4983618;28;20415;-89
2022/12/30 02:09:02;;;;;;;24.27;3.30;;;5.60;92.70;;;;;;4969806;28;19922;-86
2022/12/30 02:11:29;;;;;;;25.27;3.53;;;5.60;92.60;;;;;;4975568;28;20070;-84
2022/12/30 02:13:54;;;;;;;30.85;3.50;;;5.60;92.60;;;;;;4978598;28;20120;-87
2022/12/30 02:16:26;;;;;;;30.52;3.80;;;5.50;92.60;;;;;;4979420;28;20050;-85
2022/12/30 02:19:30;;;;;;;20.52;4.00;;;5.60;92.70;;;;;;4984843;28;20494;-87
2022/12/30 02:22:26;;;;;;;25.38;4.13;;;5.50;92.70;;;;;;4980389;28;20471;-85
2022/12/30 02:25:28;;;;;;;28.85;4.28;;;5.50;92.70;;;;;;4976496;28;20065;-86
2022/12/30 02:28:00;;;;;;;23.48;4.25;;;5.40;92.70;;;;;;4981956;28;20057;-87
2022/12/30 02:30:51;;;;;;;25.95;3.60;;;5.40;92.70;;;;;;4982194;28;20050;-86
2022/12/30 02:33:37;;;;;;;25.40;3.85;;;5.40;92.80;;;;;;4991810;28;20050;-86
2022/12/30 02:36:30;;;;;;;27.65;3.75;;;5.30;93.00;;;;;;4980190;28;20031;-85
2022/12/30 02:39:13;;;;;;;24.58;3.70;;;5.30;93.00;;;;;;4989776;28;20057;-86
2022/12/30 02:44:42;;;;;;;24.40;3.92;;;5.20;93.00;;;;;;4976947;28;20050;-86
2022/12/30 02:47:30;;;;;;;23.27;3.45;;;5.20;93.00;;;;;;4986818;28;20498;-85
2022/12/30 02:52:48;;;;;;;33.97;3.90;;;5.20;93.20;;;;;;4984805;28;20391;-86
2022/12/30 02:55:15;;;;;;;29.38;4.72;;;5.20;93.20;;;;;;4995230;28;20602;-86
2022/12/30 02:57:41;;;;;;;28.13;4.57;;;5.20;93.20;;;;;;5001685;28;20060;-85
2022/12/30 03:06:22;;;;;;;20.40;4.18;;;5.10;93.30;;;;;;5005152;28;20046;-86
2022/12/30 03:09:15;;;;;;;20.75;3.85;;;5.20;93.50;;;;;;5000512;28;20065;-87
2022/12/30 03:12:16;;;;;;;27.38;4.82;;;5.20;93.40;;;;;;5031802;28;20050;-85
2022/12/30 03:14:59;;;;;;;29.98;4.30;;;5.20;93.50;;;;;;4988847;28;20050;-86
2022/12/30 03:17:32;;;;;;;22.88;4.18;;;5.20;93.50;;;;;;5017361;28;20041;-87
2022/12/30 03:20:03;;;;;;;30.50;4.45;;;5.20;93.30;;;;;;5003910;28;20042;-88
2022/12/30 03:28:20;;;;;;;25.38;3.90;;;5.20;93.50;;;;;;4987760;28;20057;-86
2022/12/30 03:30:50;;;;;;;24.48;3.90;;;5.20;93.40;;;;;;4982046;28;20069;-87
2022/12/30 03:33:18;;;;;;;27.60;4.03;;;5.20;93.50;;;;;;4996736;28;20041;-87
2022/12/30 03:35:55;;;;;;;26.58;3.50;;;5.10;93.40;;;;;;4993178;28;20045;-85
2022/12/30 03:38:26;;;;;;;24.10;4.00;;;5.20;93.50;;;;;;4981740;28;20518;-86
2022/12/30 03:40:56;;;;;;;25.38;4.13;;;5.10;93.50;;;;;;4993113;28;20064;-86
2022/12/30 03:43:23;;;;;;;21.60;3.75;;;5.10;93.60;;;;;;4997189;28;20042;-86
2022/12/30 03:45:50;;;;;;;21.23;3.80;;;5.10;93.50;;;;;;4998002;28;20542;-86
2022/12/30 03:48:16;;;;;;;22.75;3.97;;;5.10;93.50;;;;;;4996694;28;20045;-88
2022/12/30 03:50:42;;;;;;;18.98;3.83;;;5.20;93.70;;;;;;4981472;28;20408;-86
2022/12/30 03:53:07;;;;;;;18.05;3.95;;;5.20;93.60;;;;;;4996789;28;20146;-86
2022/12/30 03:55:33;;;;;;;26.90;4.93;;;5.20;93.60;;;;;;4993966;28;20097;-85
2022/12/30 03:57:58;;;;;;;23.25;3.72;;;5.20;93.50;;;;;;4993261;28;20045;-86
2022/12/30 04:00:24;;;;;;;24.83;3.83;;;5.20;93.40;;;;;;4997676;28;20498;-87
2022/12/30 04:02:49;;;;;;;29.70;4.32;;;5.10;93.50;;;;;;4992822;28;20158;-86
2022/12/30 04:05:15;;;;;;;24.55;3.90;;;5.10;93.50;;;;;;5018704;28;20045;-86
2022/12/30 04:07:40;;;;;;;25.10;3.97;;;5.10;93.60;;;;;;4995790;28;20500;-86
2022/12/30 04:10:06;;;;;;;30.80;4.30;;;5.20;93.80;;;;;;4979939;28;20585;-88
2022/12/30 04:12:32;;;;;;;19.65;3.72;;;5.20;93.60;;;;;;5000727;28;20041;-86
2022/12/30 04:14:57;;;;;;;24.10;3.92;;;5.20;93.60;;;;;;4992326;28;20041;-86
2022/12/30 04:17:23;;;;;;;19.30;3.55;;;5.20;93.50;;;;;;4979820;28;20073;-85
2022/12/30 04:19:49;;;;;;;29.58;4.38;;;5.20;93.50;;;;;;5000017;28;20130;-86
2022/12/30 04:22:14;;;;;;;33.05;4.93;;;5.10;93.50;;;;;;5015078;28;20079;-86
2022/12/30 04:24:40;;;;;;;26.08;4.40;;;5.10;93.50;;;;;;5010884;28;20444;-87
2022/12/30 04:27:05;;;;;;;26.10;5.05;;;5.20;93.70;;;;;;4995577;28;20065;-85
2022/12/30 04:29:31;;;;;;;23.83;3.88;;;5.20;93.70;;;;;;4991721;28;20136;-85
2022/12/30 04:31:56;;;;;;;28.10;4.43;;;5.30;93.60;;;;;;5015261;28;20521;-86
2022/12/30 04:34:22;;;;;;;26.15;4.35;;;5.30;93.50;;;;;;5012105;28;20049;-86
2022/12/30 04:36:48;;;;;;;24.83;5.38;;;5.30;93.40;;;;;;4992930;28;20705;-86
2022/12/30 04:39:13;;;;;;;23.00;4.25;;;5.30;93.40;;;;;;5014091;28;20532;-86
2022/12/30 04:41:39;;;;;;;22.10;4.13;;;5.20;93.40;;;;;;4996226;28;20040;-86
2022/12/30 04:44:05;;;;;;;25.98;3.90;;;5.20;93.40;;;;;;4991558;28;20635;-86
2022/12/30 04:46:32;;;;;;;32.15;4.50;;;5.20;93.40;;;;;;4997178;28;20084;-87
2022/12/30 04:48:57;;;;;;;22.77;3.95;;;5.20;93.40;;;;;;4990303;28;20124;-86
2022/12/30 04:51:23;;;;;;;29.70;4.13;;;5.10;93.40;;;;;;5001543;28;20136;-86
2022/12/30 04:53:49;;;;;;;26.65;4.82;;;5.20;93.50;;;;;;5000384;28;20597;-86
2022/12/30 04:56:15;;;;;;;22.15;4.88;;;5.10;93.50;;;;;;4995443;28;20050;-88
2022/12/30 04:58:41;;;;;;;25.00;4.90;;;5.10;93.50;;;;;;5003922;28;20034;-86
2022/12/30 05:01:06;;;;;;;22.98;5.25;;;5.10;93.50;;;;;;5000106;28;20066;-86
2022/12/30 05:03:32;;;;;;;18.65;4.85;;;5.10;93.50;;;;;;5000269;28;20123;-86
2022/12/30 05:05:57;;;;;;;22.17;4.45;;;5.10;93.60;;;;;;5005428;28;21000;-88
2022/12/30 05:08:23;;;;;;;21.30;4.63;;;5.10;93.50;;;;;;4996460;28;20061;-86
2022/12/30 05:10:49;;;;;;;22.30;4.63;;;5.10;93.50;;;;;;5002680;28;20065;-85
2022/12/30 05:13:14;;;;;;;28.80;5.45;;;5.10;93.50;;;;;;5003648;28;20046;-86
2022/12/30 05:15:40;;;;;;;20.85;4.90;;;5.20;93.50;;;;;;4993533;28;20046;-86
2022/12/30 05:18:06;;;;;;;23.40;4.68;;;5.10;93.40;;;;;;4998400;28;20050;-86
2022/12/30 05:20:32;;;;;;;25.02;5.60;;;5.10;93.50;;;;;;4999004;28;20049;-85
2022/12/30 05:22:58;;;;;;;22.10;4.82;;;5.10;93.50;;;;;;4977445;28;20042;-86
2022/12/30 05:28:07;;;;;;;22.75;5.75;;;5.00;93.50;;;;;;4991915;28;20129;-86
2022/12/30 05:30:33;;;;;;;29.30;5.32;;;5.00;93.50;;;;;;4977613;28;20041;-86
2022/12/30 05:32:58;;;;;;;32.22;6.03;;;4.90;93.40;;;;;;4997325;28;20066;-86
2022/12/30 05:35:24;;;;;;;22.80;5.00;;;4.90;93.40;;;;;;4994392;28;20049;-87
2022/12/30 05:37:50;;;;;;;20.80;5.10;;;4.90;93.50;;;;;;4995692;28;20053;-86
2022/12/30 05:40:15;;;;;;;20.02;4.75;;;4.90;93.50;;;;;;4998211;28;20045;-88
2022/12/30 05:42:41;;;;;;;17.10;4.40;;;4.80;93.50;;;;;;4978649;28;20033;-88
2022/12/30 05:45:07;;;;;;;22.02;4.90;;;4.70;93.40;;;;;;4996762;28;20057;-86
2022/12/30 05:47:33;;;;;;;22.88;4.60;;;4.70;93.60;;;;;;4996033;28;20052;-85
2022/12/30 05:49:59;;;;;;;19.80;4.78;;;4.70;93.60;;;;;;4996028;28;20041;-86
2022/12/30 05:52:24;;;;;;;29.70;5.20;;;4.70;93.60;;;;;;4999673;28;20437;-85
2022/12/30 05:54:50;;;;;;;23.45;4.88;;;4.70;93.60;;;;;;4987671;28;20089;-86
2022/12/30 05:57:15;;;;;;;17.45;4.20;;;4.70;93.50;;;;;;4988617;28;20077;-86
2022/12/30 05:59:41;;;;;;;19.00;4.45;;;4.60;93.60;;;;;;5007200;28;20030;-86
2022/12/30 06:02:07;;;;;;;19.35;4.30;;;4.60;93.70;;;;;;5001457;28;20060;-86
2022/12/30 06:04:32;;;;;;;22.83;4.43;;;4.60;93.70;;;;;;4976913;28;20049;-88
2022/12/30 06:06:58;;;;;;;17.50;4.53;;;4.60;93.70;;;;;;4990380;28;20049;-86
2022/12/30 06:09:24;;;;;;;16.17;4.03;;;4.60;93.60;;;;;;4981602;28;20054;-87
2022/12/30 06:11:49;;;;;;;17.88;3.72;;;4.60;93.60;;;;;;4990389;28;20038;-86
2022/12/30 06:14:17;;;;;;;24.67;3.53;;;4.60;93.60;;;;;;4987135;28;20401;-86
2022/12/30 06:16:43;;;;;;;15.73;4.30;;;4.60;93.60;;;;;;4982826;28;20112;-87
2022/12/30 06:19:09;;;;;;;18.55;3.83;;;4.70;93.60;;;;;;4985364;28;20486;-87
2022/12/30 06:21:35;;;;;;;24.88;4.68;;;4.60;93.60;;;;;;4981843;28;20069;-87
2022/12/30 06:24:01;;;;;;;15.98;4.60;;;4.60;93.60;;;;;;4976804;28;20078;-86
2022/12/30 06:26:27;;;;;;;28.42;4.20;;;4.60;93.60;;;;;;4971193;28;20041;-86
2022/12/30 06:28:52;;;;;;;25.85;4.55;;;4.60;93.60;;;;;;4965057;28;20533;-87
2022/12/30 06:31:18;;;;;;;22.02;4.03;;;4.60;93.50;;;;;;4981619;28;20058;-88
2022/12/30 06:33:43;;;;;;;15.27;3.60;;;4.60;93.60;;;;;;4983682;28;20066;-86
2022/12/30 06:36:10;;;;;;;15.50;3.30;;;4.50;93.60;;;;;;4972592;28;20084;-85
2022/12/30 06:38:36;;;;;;;20.67;3.72;;;4.50;93.60;;;;;;4972997;28;20041;-86
2022/12/30 06:41:01;;;;;;;25.00;4.28;;;4.60;93.60;;;;;;4979420;28;20486;-86
2022/12/30 06:43:28;;;;;;;17.30;3.90;;;4.60;93.60;;;;;;4971254;28;20049;-86
2022/12/30 06:45:53;;;;;;;24.88;4.03;;;4.60;93.60;;;;;;4986706;28;20046;-86
2022/12/30 06:48:19;;;;;;;20.60;3.88;;;4.60;93.50;;;;;;4976658;28;20065;-87
2022/12/30 06:50:45;;;;;;;19.58;3.83;;;4.60;93.60;;;;;;4980679;28;20434;-86
2022/12/30 06:53:10;;;;;;;17.17;3.80;;;4.50;93.50;;;;;;4971289;28;20064;-86
2022/12/30 06:55:36;;;;;;;21.25;3.97;;;4.50;93.90;;;;;;4995323;28;20053;-86
2022/12/30 06:58:03;;;;;;;25.95;4.20;;;4.50;93.60;;;;;;4994117;28;20920;-87
2022/12/30 07:00:29;;;;;;;18.73;4.22;;;4.50;93.50;;;;;;5000217;28;20510;-86
2022/12/30 07:02:54;;;;;;;24.45;4.10;;;4.50;93.60;;;;;;4986857;28;20085;-86
2022/12/30 07:05:20;;;;;;;19.35;3.55;;;4.50;93.50;;;;;;4997487;28;20061;-86
2022/12/30 07:07:45;;;;;;;25.10;4.10;;;4.50;93.50;;;;;;5002022;28;20034;-88
2022/12/30 07:10:11;;;;;;;21.05;3.70;;;4.50;93.50;;;;;;4995408;28;20046;-87
2022/12/30 07:12:36;;;;;;;18.45;3.97;;;4.50;93.80;;;;;;5003877;28;20057;-86
2022/12/30 07:15:03;;;;;;;15.90;3.50;;;4.50;93.50;;;;;;4993768;28;20053;-88
2022/12/30 07:17:28;;;;;;;24.02;3.92;;;4.50;93.50;;;;;;4994931;28;20096;-87
2022/12/30 07:19:54;;;;;;;21.55;4.00;;;4.50;93.50;;;;;;4994832;28;20640;-85
2022/12/30 07:22:19;;;;;;;19.48;3.58;;;4.50;93.50;;;;;;4990789;28;20038;-85
2022/12/30 07:24:46;;;;;;;17.33;3.92;;;4.50;93.40;;;;;;4994743;28;20409;-86
2022/12/30 07:27:12;;;;;;;23.77;4.03;;;4.50;93.40;;;;;;4997404;28;20125;-86
2022/12/30 07:29:38;;;;;;;16.67;3.20;;;4.50;93.80;;;;;;4975363;28;20049;-85
2022/12/30 07:32:05;;;;;;;21.70;3.90;;;4.50;93.40;;;;;;4993403;28;20720;-85
2022/12/30 07:34:31;;;;;;;19.40;3.58;;;4.50;93.40;;;;;;4995636;28;20052;-85
2022/12/30 07:36:57;;;;;;;22.17;3.50;;;4.50;93.40;;;;;;4992604;28;20038;-86
2022/12/30 07:39:22;;;;;;;21.67;4.25;;;4.50;93.40;;;;;;4984774;28;20478;-86
2022/12/30 07:41:48;;;;;;;17.02;3.47;;;4.50;93.30;;;;;;4976518;28;20428;-87
2022/12/30 07:44:13;;;;;;;13.32;4.20;;;4.50;93.30;;;;;;4994082;28;20045;-86
2022/12/30 07:46:39;;;;;;;21.52;4.10;;;4.60;93.30;;;;;;4986486;28;20041;-85
2022/12/30 07:49:05;;;;;;;15.88;3.30;;;4.50;93.20;;;;;;4993935;28;20042;-85
2022/12/30 07:51:30;;;;;;;18.90;3.72;;;4.50;93.20;;;;;;4979507;28;20045;-85
2022/12/30 07:53:58;;;;;;;23.30;4.00;;;4.50;93.20;;;;;;4985261;28;20065;-85
2022/12/30 07:56:23;;;;;;;21.48;3.70;;;4.50;93.20;;;;;;4992963;28;20049;-86
2022/12/30 07:58:54;;;;;;;22.48;3.35;;;4.60;93.20;;;;;;4997265;28;20115;-85
2022/12/30 08:01:20;;;;;;;23.02;3.65;;;4.60;93.50;;;;;;5015286;28;20797;-86
2022/12/30 08:03:45;;;;;;;16.77;3.65;;;4.60;93.10;;;;;;4989484;28;20046;-85
2022/12/30 08:06:14;;;;;;;23.73;3.58;;;4.60;93.10;;;;;;4994624;28;20080;-85
2022/12/30 08:08:40;;;;;;;18.83;3.67;;;4.60;93.10;;;;;;4975844;28;20445;-85
2022/12/30 08:11:06;;;;;;;21.33;4.28;;;4.70;93.10;;;;;;4974175;28;20041;-88
2022/12/30 08:13:35;;;;;;;21.27;3.47;;;4.70;93.10;;;;;;4994439;28;20125;-86
2022/12/30 08:16:05;;;;;;;19.50;4.00;;;4.70;93.00;;;;;;4992229;28;21745;-84
2022/12/30 08:18:31;;;;;;;21.87;3.53;;;4.70;93.00;;;;;;4996246;28;20034;-85
2022/12/30 08:21:05;;;;;;;15.82;3.53;;;4.70;93.00;;;;;;4991402;28;20120;-85
2022/12/30 08:23:32;;;;;;;18.02;4.25;;;4.70;93.00;;;;;;4989102;28;20034;-84
2022/12/30 08:26:04;;;;;;;19.10;3.60;;;4.80;92.90;;;;;;4996940;28;20826;-85
2022/12/30 08:28:30;;;;;;;20.40;3.35;;;4.80;92.90;;;;;;4996829;28;20065;-84
2022/12/30 08:30:55;;;;;;;24.55;3.55;;;4.80;92.90;;;;;;4995715;28;20133;-84
2022/12/30 08:33:21;;;;;;;24.27;3.78;;;4.80;92.80;;;;;;4998109;28;20421;-84
2022/12/30 08:35:46;;;;;;;25.92;3.72;;;4.80;92.80;;;;;;4997920;28;20104;-84
2022/12/30 08:38:12;;;;;;;15.88;2.85;;;4.80;92.80;;;;;;4997156;28;20091;-85
2022/12/30 08:40:38;;;;;;;17.90;3.10;;;4.80;92.90;;;;;;4998438;28;20053;-85
2022/12/30 08:43:03;;;;;;;16.45;3.90;;;4.80;92.80;;;;;;4994876;28;20111;-84
2022/12/30 08:45:29;;;;;;;19.38;4.03;;;4.90;92.80;;;;;;5004455;28;20046;-85
2022/12/30 08:47:55;;;;;;;18.05;3.78;;;4.90;92.80;;;;;;5012158;28;20332;-84
2022/12/30 08:50:21;;;;;;;24.60;3.60;;;4.90;92.70;;;;;;4995456;28;20165;-85
2022/12/30 08:52:46;;;;;;;16.05;3.40;;;5.00;92.70;;;;;;5002825;28;20050;-85
2022/12/30 08:55:12;;;;;;;19.55;3.50;;;5.00;92.70;;;;;;5005204;28;20041;-85
2022/12/30 08:57:39;;;;;;;16.58;3.88;;;5.00;92.70;;;;;;5005342;28;20106;-85
2022/12/30 09:00:05;;;;;;;17.58;4.00;;;5.10;92.60;;;;;;5003961;28;20084;-85
2022/12/30 09:02:33;;;;;;;19.00;3.72;;;5.10;92.50;;;;;;4998368;28;20041;-86
2022/12/30 09:04:59;;;;;;;12.53;3.57;;;5.10;92.50;;;;;;5000636;28;20048;-85
2022/12/30 09:07:25;;;;;;;17.42;3.65;;;5.10;92.50;;;;;;4999927;28;20312;-88
2022/12/30 09:09:50;;;;;;;13.82;3.25;;;5.20;92.50;;;;;;4980919;28;20374;-85
2022/12/30 09:12:16;;;;;;;18.15;3.88;;;5.20;92.30;;;;;;5020555;28;20037;-86
2022/12/30 09:14:41;;;;;;;11.27;3.63;;;5.30;92.30;;;;;;4999811;28;20045;-86
2022/12/30 09:17:07;;;;;;;17.60;4.07;;;5.20;92.30;;;;;;4993698;28;20045;-85
2022/12/30 09:19:32;;;;;;;23.13;3.60;;;5.30;92.30;;;;;;5001402;28;20663;-87
2022/12/30 09:21:58;;;;;;;14.57;3.28;;;5.30;92.30;;;;;;5000684;28;20065;-87
2022/12/30 09:24:24;;;;;;;14.02;3.40;;;5.30;92.40;;;;;;4985231;28;20034;-86
2022/12/30 09:26:49;;;;;;;17.55;3.13;;;5.40;92.30;;;;;;5002209;28;20034;-85
2022/12/30 09:29:18;;;;;;;13.32;3.80;;;5.40;92.20;;;;;;4981928;28;20045;-86
2022/12/30 09:31:44;;;;;;;20.27;3.40;;;5.40;92.10;;;;;;5015182;28;20042;-87
2022/12/30 09:34:11;;;;;;;15.07;3.50;;;5.50;92.00;;;;;;4986595;28;20050;-85
2022/12/30 09:36:36;;;;;;;15.10;4.35;;;5.50;91.90;;;;;;4999416;28;20054;-85
2022/12/30 09:39:02;;;;;;;20.02;4.07;;;5.60;91.90;;;;;;4985351;28;20045;-86
2022/12/30 09:44:57;;;;;;;16.73;3.03;;;5.70;91.80;;;;;;4996000;28;20049;-85
2022/12/30 09:48:04;;;;;;;14.60;3.17;;;5.70;91.70;;;;;;4999933;28;20613;-85
2022/12/30 09:50:41;;;;;;;13.90;3.05;;;5.80;91.60;;;;;;4913454;29;20581;-85
2022/12/30 09:53:16;;;;;;;14.45;2.95;;;5.80;91.40;;;;;;4903152;29;20447;-87
2022/12/30 09:55:50;;;;;;;17.35;3.17;;;5.90;91.40;;;;;;4978806;28;20057;-86
2022/12/30 09:58:28;;;;;;;13.95;2.90;;;5.90;91.80;;;;;;4997647;28;20046;-86
2022/12/30 10:00:56;;;;;;;12.32;2.83;;;6.00;91.10;;;;;;4999353;28;20099;-86
2022/12/30 10:03:27;;;;;;;16.50;3.27;;;6.00;91.00;;;;;;4986408;28;20037;-85
2022/12/30 10:06:09;;;;;;;16.48;3.25;;;6.10;90.90;;;;;;5002204;28;20045;-86
2022/12/30 10:08:56;;;;;;;15.75;3.13;;;6.10;90.90;;;;;;4999328;28;20053;-85
2022/12/30 10:11:40;;;;;;;17.83;3.10;;;6.10;90.80;;;;;;4993609;28;20052;-87
2022/12/30 10:14:30;;;;;;;13.57;2.85;;;6.10;90.80;;;;;;5005524;28;20041;-86
2022/12/30 10:17:08;;;;;;;12.13;2.72;;;6.20;90.60;;;;;;5032522;23;20064;-86
2022/12/30 10:20:01;;;;;;;13.57;2.58;;;6.20;90.60;;;;;;5018593;28;20049;-87
2022/12/30 10:23:11;;;;;;;16.35;3.15;;;6.30;90.60;;;;;;5036771;28;20524;-85
2022/12/30 10:26:08;;;;;;;15.80;3.15;;;6.30;90.40;;;;;;5030028;28;20136;-85
2022/12/30 10:28:37;;;;;;;13.85;2.95;;;6.40;90.40;;;;;;5021530;28;20565;-86
2022/12/30 10:31:09;;;;;;;18.35;3.30;;;6.50;90.10;;;;;;5037833;28;20064;-85
2022/12/30 10:33:35;;;;;;;11.02;2.33;;;6.50;90.00;;;;;;5045783;28;20048;-87
2022/12/30 10:36:16;;;;;;;10.55;2.80;;;6.60;89.70;;;;;;5033112;28;20038;-86
2022/12/30 10:38:42;;;;;;;13.38;3.83;;;6.70;89.60;;;;;;5024237;28;20043;-85
2022/12/30 10:41:39;;;;;;;13.98;2.65;;;6.70;89.40;;;;;;5037295;28;20052;-86
2022/12/30 10:44:46;;;;;;;8.65;2.00;;;6.70;89.20;;;;;;5019166;28;20053;-85
2022/12/30 10:47:20;;;;;;;9.95;2.60;;;6.90;89.30;;;;;;5037316;28;20147;-85
2022/12/30 10:50:01;;;;;;;10.35;2.85;;;6.80;89.00;;;;;;5035053;28;20119;-88
2022/12/30 10:52:27;;;;;;;11.52;2.33;;;6.90;88.40;;;;;;5034576;28;20088;-88
2022/12/30 10:54:53;;;;;;;8.98;2.45;;;7.00;88.50;;;;;;5049256;28;20053;-85
2022/12/30 10:57:27;;;;;;;10.27;2.60;;;7.00;88.00;;;;;;5024816;28;20071;-86
2022/12/30 10:59:57;;;;;;;10.00;2.13;;;7.10;88.00;;;;;;5023165;28;20053;-84
2022/12/30 11:02:30;;;;;;;9.45;2.15;;;7.10;87.80;;;;;;5038490;28;20507;-85
2022/12/30 11:04:56;;;;;;;14.07;2.53;;;7.10;87.80;;;;;;5031897;28;20481;-85
2022/12/30 11:07:24;;;;;;;7.57;2.30;;;7.30;86.80;;;;;;5054143;28;20048;-85
2022/12/30 11:09:50;;;;;;;10.38;2.20;;;7.30;86.60;;;;;;5033026;28;20075;-85
2022/12/30 11:15:18;;;;;;;7.60;2.20;;;7.30;86.70;;;;;;5068819;28;20041;-85
2022/12/30 11:17:58;;;;;;;8.88;2.30;;;7.30;86.30;;;;;;5038082;28;20061;-85
2022/12/30 11:20:36;;;;;;;9.35;2.20;;;7.30;85.90;;;;;;5020519;28;20475;-84
2022/12/30 11:23:05;;;;;;;7.22;2.03;;;7.30;85.80;;;;;;5068391;28;20047;-84
2022/12/30 11:25:42;;;;;;;11.85;2.25;;;7.30;86.30;;;;;;5018555;28;20083;-84
2022/12/30 11:28:20;;;;;;;9.35;2.30;;;7.30;85.90;;;;;;5044039;28;20480;-84
2022/12/30 11:31:06;;;;;;;10.65;2.85;;;7.30;85.80;;;;;;5044555;28;20049;-84
2022/12/30 11:33:51;;;;;;;10.80;2.30;;;7.40;85.20;;;;;;5029454;28;20041;-83
2022/12/30 11:36:30;;;;;;;6.60;2.10;;;7.50;85.80;;;;;;5028794;28;20072;-85
2022/12/30 11:39:15;;;;;;;7.72;2.17;;;7.50;85.40;;;;;;5026918;28;20041;-86
2022/12/30 11:41:52;;;;;;;9.73;2.35;;;7.50;85.00;;;;;;5034545;28;20040;-84
2022/12/30 11:44:38;;;;;;;8.65;2.15;;;7.60;84.50;;;;;;5033808;28;20073;-86
2022/12/30 11:47:11;;;;;;;11.38;2.42;;;7.60;84.30;;;;;;5035605;28;20064;-84
2022/12/30 11:49:48;;;;;;;9.43;2.58;;;7.60;84.70;;;;;;5035718;28;20103;-85
2022/12/30 11:52:24;;;;;;;8.93;2.35;;;7.70;84.40;;;;;;5034652;28;20055;-85
2022/12/30 11:55:02;;;;;;;9.85;2.80;;;7.70;84.50;;;;;;5017665;28;20036;-85
2022/12/30 11:57:36;;;;;;;9.98;2.42;;;7.70;84.70;;;;;;5041975;28;20055;-85
2022/12/30 12:00:29;;;;;;;11.27;2.25;;;7.80;84.40;;;;;;5027608;28;20540;-85
2022/12/30 12:03:00;;;;;;;11.48;2.40;;;7.80;84.80;;;;;;5042986;28;20053;-87
2022/12/30 12:05:39;;;;;;;5.97;2.33;;;7.80;84.10;;;;;;5039196;28;20041;-86
2022/12/30 12:08:17;;;;;;;;;;;7.80;84.20;;;;;;5026638;28;20044;-84
2022/12/30 12:10:52;;;;;;;8.48;2.28;;;7.90;83.40;;;;;;5038459;28;19924;-85
2022/12/30 12:13:36;;;;;;;6.82;2.00;;;8.00;83.40;;;;;;5040548;28;20033;-85
2022/12/30 12:16:04;;;;;;;12.20;2.33;;;8.00;82.90;;;;;;5057495;28;20053;-85
2022/12/30 12:18:44;;;;;;;13.40;2.17;;;8.00;83.20;;;;;;5041930;28;20041;-85
2022/12/30 12:21:25;;;;;;;13.32;2.50;;;8.00;83.20;;;;;;5039810;28;20041;-87
2022/12/30 12:24:13;;;;;;;10.20;2.10;;;8.10;82.70;;;;;;5033611;28;20354;-87
2022/12/30 12:26:54;;;;;;;10.00;2.30;;;8.10;82.80;;;;;;5037227;28;20388;-86
2022/12/30 12:29:20;;;;;;;4.35;1.63;;;8.10;83.10;;;;;;5038763;28;20033;-86
2022/12/30 12:32:07;;;;;;;9.60;2.60;;;8.10;83.20;;;;;;5037381;28;20133;-86
2022/12/30 12:34:57;;;;;;;6.55;2.05;;;8.10;82.80;;;;;;5034015;28;20519;-87
2022/12/30 12:37:41;;;;;;;5.70;1.95;;;8.20;82.20;;;;;;5037139;28;20048;-87
2022/12/30 12:40:16;;;;;;;7.75;2.08;;;8.20;82.90;;;;;;5051955;28;20052;-86
2022/12/30 12:42:47;;;;;;;4.90;1.70;;;8.20;82.30;;;;;;5034004;28;20105;-85
2022/12/30 12:45:40;;;;;;;8.20;2.20;;;8.20;82.10;;;;;;5021957;28;20148;-85
2022/12/30 12:48:27;;;;;;;9.75;2.30;;;8.30;81.70;;;;;;5073067;28;20082;-84
2022/12/30 12:51:12;;;;;;;11.45;1.92;;;8.30;81.60;;;;;;5049373;28;20164;-85
2022/12/30 12:53:46;;;;;;;9.88;2.28;;;8.30;82.30;;;;;;5045907;28;20048;-84
2022/12/30 12:56:43;;;;;;;9.57;2.15;;;8.30;81.70;;;;;;5055927;28;20086;-84
2022/12/30 12:59:36;;;;;;;7.07;2.00;;;8.30;81.70;;;;;;5078956;28;20048;-84
2022/12/30 13:02:20;;;;;;;9.63;2.10;;;8.30;81.50;;;;;;5040882;28;20427;-85
2022/12/30 13:05:07;;;;;;;7.57;1.70;;;8.40;81.40;;;;;;5022320;28;20051;-86
2022/12/30 13:07:42;;;;;;;6.88;1.73;;;8.40;80.90;;;;;;5023097;28;20048;-86
2022/12/30 13:10:29;;;;;;;6.95;2.20;;;8.40;81.70;;;;;;5036614;28;20045;-85
2022/12/30 13:13:29;;;;;;;7.57;2.08;;;8.40;81.30;;;;;;5039259;28;20105;-85
2022/12/30 13:16:02;;;;;;;5.40;1.80;;;8.40;81.20;;;;;;5038015;28;20048;-85
2022/12/30 13:18:30;;;;;;;8.38;2.05;;;8.60;80.10;;;;;;5055917;28;20045;-85
2022/12/30 13:21:00;;;;;;;5.85;1.27;;;8.60;80.10;;;;;;5024166;28;20052;-86
2022/12/30 13:23:32;;;;;;;6.40;1.65;;;8.60;80.50;;;;;;5023040;28;20500;-85
2022/12/30 13:26:09;;;;;;;8.13;1.88;;;8.60;79.60;;;;;;5040389;28;20060;-86
2022/12/30 13:28:35;;;;;;;6.72;1.92;;;8.70;79.40;;;;;;5039402;28;20484;-86
2022/12/30 13:31:34;;;;;;;5.35;1.55;;;8.60;80.30;;;;;;5060302;22;20455;-86
2022/12/30 13:34:16;;;;;;;8.85;1.60;;;8.60;79.40;;;;;;5063363;28;20041;-87
2022/12/30 13:36:48;;;;;;;8.68;1.70;;;8.60;79.60;;;;;;5054847;28;20808;-85
2022/12/30 13:39:27;;;;;;;7.80;1.58;;;8.60;79.80;;;;;;5040338;28;20048;-85
2022/12/30 13:42:28;;;;;;;6.25;1.70;;;8.70;79.30;;;;;;5057882;28;21403;-87
2022/12/30 13:44:54;;;;;;;6.07;1.50;;;8.60;79.60;;;;;;5053897;28;20048;-85
2022/12/30 13:47:29;;;;;;;9.20;1.40;;;8.70;79.60;;;;;;5060129;28;20044;-86
2022/12/30 13:49:54;;;;;;;5.40;1.63;;;8.70;79.50;;;;;;5054696;28;20053;-85
2022/12/30 13:52:24;;;;;;;8.65;1.98;;;8.70;79.20;;;;;;5053313;28;20059;-85
2022/12/30 13:54:59;;;;;;;5.35;1.70;;;8.80;78.90;;;;;;5059007;28;20082;-87
2022/12/30 13:57:47;;;;;;;5.13;1.23;;;8.80;78.10;;;;;;5056226;28;20744;-85
2022/12/30 14:00:19;;;;;;;8.73;2.30;;;8.80;78.60;;;;;;5056223;28;20036;-84
2022/12/30 14:02:50;;;;;;;3.47;1.40;;;8.80;78.40;;;;;;5058112;28;20516;-86
2022/12/30 14:05:37;;;;;;;6.55;1.50;;;8.80;78.20;;;;;;5069805;28;20032;-85
2022/12/30 14:08:41;;;;;;;5.10;1.30;;;8.80;78.40;;;;;;5056619;28;20518;-86
2022/12/30 14:11:10;;;;;;;7.03;1.50;;;8.90;77.80;;;;;;5072085;28;20079;-86